N48MQ KSEE-KSMO
Flight info
| Callsign | N48MQ |
|---|---|
| Flight time | 0h 51m |
| Altitude | 8500 |
| Route | KSEE KSMO |
| Aircraft | M20P/L-VGDW/C |
Departure
| Time | 2026-05-06 23:45 |
|---|---|
| Airport | Gillespie Field (KSEE) |
Arrival
| Time | 2026-05-07 00:36 |
|---|---|
| Airport | Santa Monica Municipal Airport (KSMO) |
| Time | Latitude | Longitude | Altitude | Speed | Heading |
|---|---|---|---|---|---|
| 2026-05-06 23:34 | 32.82483 | -116.96813 | 380 ft | 0 kts | 14° |
| 2026-05-06 23:40 | 32.82478 | -116.96787 | 380 ft | 6 kts | 125° |
| 2026-05-06 23:41 | 32.82462 | -116.96737 | 381 ft | 5 kts | 98° |
| 2026-05-06 23:41 | 32.82459 | -116.96699 | 381 ft | 3 kts | 92° |
| 2026-05-06 23:41 | 32.82459 | -116.96681 | 382 ft | 1 kts | 94° |
| 2026-05-06 23:41 | 32.82458 | -116.96676 | 382 ft | 2 kts | 95° |
| 2026-05-06 23:42 | 32.82471 | -116.96619 | 381 ft | 11 kts | 23° |
| 2026-05-06 23:42 | 32.82478 | -116.96518 | 383 ft | 14 kts | 100° |
| 2026-05-06 23:42 | 32.82528 | -116.96422 | 385 ft | 15 kts | 30° |
| 2026-05-06 23:42 | 32.82553 | -116.96415 | 385 ft | 0 kts | 343° |
| 2026-05-06 23:43 | 32.82576 | -116.96424 | 385 ft | 7 kts | 339° |
| 2026-05-06 23:43 | 32.82597 | -116.96437 | 385 ft | 0 kts | 329° |
| 2026-05-06 23:44 | 32.82613 | -116.96448 | 384 ft | 9 kts | 326° |
| 2026-05-06 23:44 | 32.82680 | -116.96639 | 381 ft | 55 kts | 283° |
| 2026-05-06 23:44 | 32.82802 | -116.97347 | 373 ft | 106 kts | 282° |
| 2026-05-06 23:45 | 32.82949 | -116.98165 | 799 ft | 92 kts | 280° |
| 2026-05-06 23:45 | 32.82993 | -116.98973 | 1142 ft | 97 kts | 263° |
| 2026-05-06 23:45 | 32.82880 | -116.99796 | 1495 ft | 100 kts | 262° |
| 2026-05-06 23:45 | 32.82740 | -117.00610 | 1917 ft | 96 kts | 260° |
| 2026-05-06 23:46 | 32.82619 | -117.01412 | 2232 ft | 100 kts | 261° |
| 2026-05-06 23:46 | 32.82510 | -117.02226 | 2623 ft | 97 kts | 260° |
| 2026-05-06 23:46 | 32.82384 | -117.03043 | 2937 ft | 101 kts | 262° |
| 2026-05-06 23:46 | 32.82344 | -117.03987 | 3019 ft | 121 kts | 268° |
| 2026-05-06 23:47 | 32.82245 | -117.05060 | 3011 ft | 127 kts | 261° |
| 2026-05-06 23:47 | 32.82122 | -117.06108 | 3002 ft | 121 kts | 263° |
| 2026-05-06 23:47 | 32.82038 | -117.07108 | 3005 ft | 119 kts | 264° |
| 2026-05-06 23:47 | 32.81965 | -117.08108 | 3007 ft | 119 kts | 265° |
| 2026-05-06 23:48 | 32.81898 | -117.09096 | 3008 ft | 119 kts | 265° |
| 2026-05-06 23:48 | 32.81834 | -117.10085 | 3008 ft | 119 kts | 265° |
| 2026-05-06 23:48 | 32.81771 | -117.11060 | 3008 ft | 119 kts | 265° |
| 2026-05-06 23:48 | 32.81709 | -117.12039 | 3008 ft | 119 kts | 265° |
| 2026-05-06 23:49 | 32.81647 | -117.13030 | 3009 ft | 118 kts | 265° |
| 2026-05-06 23:49 | 32.81583 | -117.14032 | 3008 ft | 117 kts | 265° |
| 2026-05-06 23:49 | 32.81521 | -117.15020 | 3008 ft | 115 kts | 265° |
| 2026-05-06 23:49 | 32.81460 | -117.15986 | 3006 ft | 111 kts | 265° |
| 2026-05-06 23:50 | 32.81400 | -117.16916 | 3007 ft | 108 kts | 265° |
| 2026-05-06 23:50 | 32.81285 | -117.18717 | 3009 ft | 104 kts | 265° |
| 2026-05-06 23:50 | 32.81228 | -117.19610 | 3010 ft | 103 kts | 266° |
| 2026-05-06 23:51 | 32.81379 | -117.20448 | 3012 ft | 104 kts | 293° |
| 2026-05-06 23:51 | 32.81794 | -117.21193 | 3011 ft | 105 kts | 304° |
| 2026-05-06 23:51 | 32.82299 | -117.21877 | 3011 ft | 105 kts | 309° |
| 2026-05-06 23:51 | 32.82841 | -117.22515 | 3010 ft | 106 kts | 311° |
| 2026-05-06 23:52 | 32.83390 | -117.23117 | 3010 ft | 106 kts | 313° |
| 2026-05-06 23:52 | 32.83958 | -117.23718 | 3011 ft | 105 kts | 313° |
| 2026-05-06 23:52 | 32.84510 | -117.24286 | 3174 ft | 97 kts | 314° |
| 2026-05-06 23:52 | 32.85028 | -117.24820 | 3441 ft | 98 kts | 313° |
| 2026-05-06 23:53 | 32.85609 | -117.25425 | 3521 ft | 116 kts | 314° |
| 2026-05-06 23:53 | 32.86291 | -117.26122 | 3525 ft | 133 kts | 315° |
| 2026-05-06 23:53 | 32.86774 | -117.26608 | 3515 ft | 134 kts | 316° |
| 2026-05-06 23:53 | 32.87705 | -117.27542 | 3502 ft | 124 kts | 315° |
| 2026-05-06 23:54 | 32.88368 | -117.28216 | 3498 ft | 119 kts | 316° |
| 2026-05-06 23:54 | 32.88999 | -117.28864 | 3502 ft | 115 kts | 323° |
| 2026-05-06 23:54 | 32.89625 | -117.29505 | 3505 ft | 113 kts | 324° |
| 2026-05-06 23:54 | 32.90236 | -117.30124 | 3508 ft | 112 kts | 325° |
| 2026-05-06 23:55 | 32.90836 | -117.30734 | 3510 ft | 111 kts | 326° |
| 2026-05-06 23:55 | 32.91435 | -117.31343 | 3509 ft | 110 kts | 325° |
| 2026-05-06 23:55 | 32.92036 | -117.31954 | 3503 ft | 111 kts | 325° |
| 2026-05-06 23:55 | 32.92633 | -117.32562 | 3505 ft | 111 kts | 326° |
| 2026-05-06 23:56 | 32.93230 | -117.33168 | 3494 ft | 110 kts | 323° |
| 2026-05-06 23:56 | 32.93822 | -117.33773 | 3498 ft | 107 kts | 326° |
| 2026-05-06 23:56 | 32.94385 | -117.34351 | 3494 ft | 104 kts | 325° |
| 2026-05-06 23:56 | 32.94942 | -117.34917 | 3488 ft | 102 kts | 324° |
| 2026-05-06 23:57 | 32.95489 | -117.35475 | 3489 ft | 99 kts | 326° |
| 2026-05-06 23:57 | 32.96043 | -117.36035 | 3503 ft | 107 kts | 324° |
| 2026-05-06 23:57 | 32.96643 | -117.36643 | 3513 ft | 116 kts | 324° |
| 2026-05-06 23:57 | 32.97292 | -117.37302 | 3514 ft | 123 kts | 323° |
| 2026-05-06 23:58 | 32.97982 | -117.38007 | 3506 ft | 128 kts | 326° |
| 2026-05-06 23:58 | 32.98676 | -117.38715 | 3504 ft | 130 kts | 323° |
| 2026-05-06 23:58 | 32.99389 | -117.39442 | 3496 ft | 133 kts | 325° |
| 2026-05-06 23:58 | 33.00106 | -117.40174 | 3490 ft | 134 kts | 323° |
| 2026-05-06 23:59 | 33.00822 | -117.40906 | 3509 ft | 133 kts | 323° |
| 2026-05-06 23:59 | 33.01555 | -117.41653 | 3503 ft | 134 kts | 324° |
| 2026-05-06 23:59 | 33.02280 | -117.42395 | 3501 ft | 134 kts | 323° |
| 2026-05-06 23:59 | 33.03002 | -117.43132 | 3491 ft | 134 kts | 324° |
| 2026-05-07 00:00 | 33.03723 | -117.43868 | 3487 ft | 133 kts | 323° |
| 2026-05-07 00:00 | 33.04425 | -117.44589 | 3785 ft | 130 kts | 324° |
| 2026-05-07 00:00 | 33.05127 | -117.45307 | 4091 ft | 130 kts | 324° |
| 2026-05-07 00:00 | 33.05606 | -117.45795 | 4287 ft | 130 kts | 324° |
| 2026-05-07 00:01 | 33.06538 | -117.46748 | 4694 ft | 130 kts | 326° |
| 2026-05-07 00:01 | 33.06998 | -117.47218 | 4896 ft | 129 kts | 325° |
| 2026-05-07 00:01 | 33.07930 | -117.48169 | 5292 ft | 129 kts | 326° |
| 2026-05-07 00:01 | 33.08618 | -117.48871 | 5593 ft | 128 kts | 325° |
| 2026-05-07 00:02 | 33.09313 | -117.49581 | 5901 ft | 127 kts | 327° |
| 2026-05-07 00:02 | 33.09998 | -117.50282 | 6205 ft | 126 kts | 326° |
| 2026-05-07 00:02 | 33.10661 | -117.50961 | 6507 ft | 125 kts | 327° |
| 2026-05-07 00:02 | 33.11331 | -117.51647 | 6812 ft | 125 kts | 326° |
| 2026-05-07 00:03 | 33.12003 | -117.52337 | 7120 ft | 125 kts | 327° |
| 2026-05-07 00:03 | 33.12677 | -117.53027 | 7416 ft | 126 kts | 315° |
| 2026-05-07 00:03 | 33.13353 | -117.53715 | 7706 ft | 127 kts | 314° |
| 2026-05-07 00:03 | 33.14041 | -117.54424 | 8010 ft | 129 kts | 314° |
| 2026-05-07 00:04 | 33.14731 | -117.55136 | 8312 ft | 130 kts | 315° |
| 2026-05-07 00:04 | 33.15443 | -117.55872 | 8489 ft | 143 kts | 316° |
| 2026-05-07 00:04 | 33.16260 | -117.56715 | 8504 ft | 163 kts | 317° |
| 2026-05-07 00:04 | 33.16864 | -117.57332 | 8501 ft | 174 kts | 317° |
| 2026-05-07 00:05 | 33.18142 | -117.58636 | 8496 ft | 188 kts | 318° |
| 2026-05-07 00:05 | 33.19168 | -117.59685 | 8492 ft | 191 kts | 318° |
| 2026-05-07 00:05 | 33.19845 | -117.60375 | 8488 ft | 188 kts | 318° |
| 2026-05-07 00:05 | 33.21169 | -117.61731 | 8488 ft | 183 kts | 318° |
| 2026-05-07 00:06 | 33.22146 | -117.62735 | 8488 ft | 181 kts | 318° |
| 2026-05-07 00:06 | 33.23123 | -117.63738 | 8490 ft | 178 kts | 317° |
| 2026-05-07 00:06 | 33.24070 | -117.64712 | 8489 ft | 177 kts | 318° |
| 2026-05-07 00:06 | 33.24697 | -117.65358 | 8488 ft | 177 kts | 317° |
| 2026-05-07 00:07 | 33.25638 | -117.66326 | 8489 ft | 176 kts | 317° |
| 2026-05-07 00:07 | 33.26896 | -117.67622 | 8489 ft | 175 kts | 317° |
| 2026-05-07 00:07 | 33.27515 | -117.68257 | 8488 ft | 175 kts | 318° |
| 2026-05-07 00:07 | 33.28772 | -117.69553 | 8489 ft | 175 kts | 317° |
| 2026-05-07 00:08 | 33.29709 | -117.70517 | 8488 ft | 175 kts | 318° |
| 2026-05-07 00:08 | 33.30647 | -117.71484 | 8488 ft | 175 kts | 319° |
| 2026-05-07 00:08 | 33.31585 | -117.72451 | 8488 ft | 175 kts | 319° |
| 2026-05-07 00:08 | 33.32202 | -117.73088 | 8489 ft | 175 kts | 318° |
| 2026-05-07 00:09 | 33.33454 | -117.74377 | 8489 ft | 175 kts | 318° |
| 2026-05-07 00:09 | 33.34394 | -117.75347 | 8489 ft | 175 kts | 318° |
| 2026-05-07 00:09 | 33.35326 | -117.76308 | 8489 ft | 175 kts | 318° |
| 2026-05-07 00:09 | 33.36265 | -117.77278 | 8341 ft | 162 kts | 318° |
| 2026-05-07 00:10 | 33.37086 | -117.78125 | 8093 ft | 147 kts | 318° |
| 2026-05-07 00:10 | 33.37848 | -117.78915 | 7876 ft | 136 kts | 317° |
| 2026-05-07 00:10 | 33.38325 | -117.79408 | 7749 ft | 131 kts | 317° |
| 2026-05-07 00:10 | 33.39234 | -117.80349 | 7500 ft | 124 kts | 316° |
| 2026-05-07 00:11 | 33.39681 | -117.80812 | 7375 ft | 122 kts | 316° |
| 2026-05-07 00:11 | 33.40554 | -117.81715 | 7133 ft | 121 kts | 316° |
| 2026-05-07 00:11 | 33.41204 | -117.82389 | 6953 ft | 121 kts | 316° |
| 2026-05-07 00:11 | 33.41853 | -117.83061 | 6773 ft | 120 kts | 316° |
| 2026-05-07 00:12 | 33.42494 | -117.83724 | 6594 ft | 119 kts | 316° |
| 2026-05-07 00:12 | 33.43128 | -117.84378 | 6488 ft | 112 kts | 316° |
| 2026-05-07 00:12 | 33.43705 | -117.84972 | 6484 ft | 105 kts | 315° |
| 2026-05-07 00:12 | 33.44300 | -117.85593 | 6507 ft | 120 kts | 315° |
| 2026-05-07 00:13 | 33.44999 | -117.86321 | 6503 ft | 134 kts | 316° |
| 2026-05-07 00:13 | 33.45754 | -117.87105 | 6498 ft | 144 kts | 316° |
| 2026-05-07 00:13 | 33.46542 | -117.87918 | 6495 ft | 151 kts | 316° |
| 2026-05-07 00:13 | 33.47365 | -117.88768 | 6492 ft | 155 kts | 317° |
| 2026-05-07 00:14 | 33.48216 | -117.89646 | 6490 ft | 158 kts | 317° |
| 2026-05-07 00:14 | 33.48788 | -117.90236 | 6488 ft | 158 kts | 317° |
| 2026-05-07 00:14 | 33.49923 | -117.91411 | 6487 ft | 160 kts | 317° |
| 2026-05-07 00:14 | 33.50781 | -117.92299 | 6486 ft | 161 kts | 317° |
| 2026-05-07 00:15 | 33.51624 | -117.93172 | 6485 ft | 162 kts | 317° |
| 2026-05-07 00:15 | 33.52480 | -117.94059 | 6483 ft | 162 kts | 317° |
| 2026-05-07 00:15 | 33.53341 | -117.94955 | 6482 ft | 162 kts | 316° |
| 2026-05-07 00:15 | 33.54182 | -117.95856 | 6480 ft | 162 kts | 315° |
| 2026-05-07 00:16 | 33.55035 | -117.96782 | 6478 ft | 163 kts | 315° |
| 2026-05-07 00:16 | 33.55875 | -117.97696 | 6476 ft | 163 kts | 315° |
| 2026-05-07 00:16 | 33.56720 | -117.98615 | 6474 ft | 163 kts | 315° |
| 2026-05-07 00:16 | 33.57567 | -117.99538 | 6472 ft | 163 kts | 315° |
| 2026-05-07 00:17 | 33.58406 | -118.00454 | 6470 ft | 163 kts | 315° |
| 2026-05-07 00:17 | 33.59255 | -118.01380 | 6467 ft | 164 kts | 315° |
| 2026-05-07 00:17 | 33.60097 | -118.02300 | 6464 ft | 164 kts | 315° |
| 2026-05-07 00:17 | 33.60950 | -118.03232 | 6462 ft | 164 kts | 315° |
| 2026-05-07 00:18 | 33.61795 | -118.04155 | 6461 ft | 165 kts | 315° |
| 2026-05-07 00:18 | 33.62367 | -118.04781 | 6460 ft | 165 kts | 315° |
| 2026-05-07 00:18 | 33.63519 | -118.06039 | 6458 ft | 165 kts | 315° |
| 2026-05-07 00:18 | 33.64384 | -118.06986 | 6457 ft | 165 kts | 315° |
| 2026-05-07 00:19 | 33.65239 | -118.07925 | 6455 ft | 165 kts | 315° |
| 2026-05-07 00:19 | 33.65807 | -118.08550 | 6452 ft | 165 kts | 315° |
| 2026-05-07 00:19 | 33.66693 | -118.09524 | 6203 ft | 161 kts | 315° |
| 2026-05-07 00:19 | 33.67730 | -118.10658 | 5846 ft | 143 kts | 314° |
| 2026-05-07 00:20 | 33.68465 | -118.11465 | 5586 ft | 138 kts | 313° |
| 2026-05-07 00:20 | 33.69163 | -118.12233 | 5335 ft | 135 kts | 313° |
| 2026-05-07 00:20 | 33.69851 | -118.12987 | 5085 ft | 133 kts | 313° |
| 2026-05-07 00:20 | 33.70537 | -118.13739 | 4832 ft | 131 kts | 312° |
| 2026-05-07 00:21 | 33.71212 | -118.14479 | 4581 ft | 130 kts | 312° |
| 2026-05-07 00:21 | 33.71879 | -118.15211 | 4330 ft | 128 kts | 312° |
| 2026-05-07 00:21 | 33.72532 | -118.15928 | 4080 ft | 126 kts | 311° |
| 2026-05-07 00:21 | 33.73175 | -118.16633 | 3832 ft | 125 kts | 311° |
| 2026-05-07 00:22 | 33.73809 | -118.17329 | 3584 ft | 124 kts | 311° |
| 2026-05-07 00:22 | 33.74443 | -118.18024 | 3334 ft | 122 kts | 311° |
| 2026-05-07 00:22 | 33.75064 | -118.18704 | 3086 ft | 122 kts | 311° |
| 2026-05-07 00:22 | 33.75686 | -118.19389 | 2843 ft | 123 kts | 311° |
| 2026-05-07 00:23 | 33.76323 | -118.20088 | 2595 ft | 123 kts | 310° |
| 2026-05-07 00:23 | 33.76957 | -118.20784 | 2494 ft | 125 kts | 310° |
| 2026-05-07 00:23 | 33.77621 | -118.21516 | 2486 ft | 132 kts | 311° |
| 2026-05-07 00:23 | 33.78312 | -118.22274 | 2485 ft | 136 kts | 312° |
| 2026-05-07 00:24 | 33.79017 | -118.23045 | 2485 ft | 139 kts | 312° |
| 2026-05-07 00:24 | 33.79739 | -118.23836 | 2486 ft | 140 kts | 311° |
| 2026-05-07 00:24 | 33.80463 | -118.24631 | 2487 ft | 140 kts | 311° |
| 2026-05-07 00:24 | 33.81193 | -118.25433 | 2488 ft | 140 kts | 312° |
| 2026-05-07 00:25 | 33.81916 | -118.26227 | 2489 ft | 140 kts | 311° |
| 2026-05-07 00:25 | 33.82643 | -118.27026 | 2489 ft | 139 kts | 311° |
| 2026-05-07 00:25 | 33.83359 | -118.27814 | 2489 ft | 139 kts | 311° |
| 2026-05-07 00:25 | 33.83842 | -118.28346 | 2492 ft | 139 kts | 311° |
| 2026-05-07 00:26 | 33.84817 | -118.29361 | 2497 ft | 139 kts | 314° |
| 2026-05-07 00:26 | 33.85557 | -118.30105 | 2496 ft | 139 kts | 314° |
| 2026-05-07 00:26 | 33.86299 | -118.30852 | 2497 ft | 139 kts | 315° |
| 2026-05-07 00:26 | 33.87048 | -118.31602 | 2497 ft | 139 kts | 313° |
| 2026-05-07 00:27 | 33.87781 | -118.32339 | 2502 ft | 138 kts | 314° |
| 2026-05-07 00:27 | 33.88525 | -118.33085 | 2501 ft | 138 kts | 314° |
| 2026-05-07 00:27 | 33.89268 | -118.33831 | 2499 ft | 138 kts | 314° |
| 2026-05-07 00:27 | 33.89992 | -118.34557 | 2494 ft | 131 kts | 315° |
| 2026-05-07 00:28 | 33.90667 | -118.35232 | 2493 ft | 122 kts | 314° |
| 2026-05-07 00:28 | 33.91299 | -118.35867 | 2490 ft | 117 kts | 313° |
| 2026-05-07 00:28 | 33.91911 | -118.36483 | 2498 ft | 112 kts | 313° |
| 2026-05-07 00:28 | 33.92509 | -118.37087 | 2495 ft | 111 kts | 313° |
| 2026-05-07 00:29 | 33.93094 | -118.37677 | 2496 ft | 109 kts | 313° |
| 2026-05-07 00:29 | 33.93663 | -118.38250 | 2499 ft | 107 kts | 313° |
| 2026-05-07 00:30 | 33.95366 | -118.39964 | 2496 ft | 105 kts | 313° |
| 2026-05-07 00:30 | 33.95938 | -118.40539 | 2495 ft | 103 kts | 313° |
| 2026-05-07 00:30 | 33.96501 | -118.41108 | 2500 ft | 105 kts | 313° |
| 2026-05-07 00:30 | 33.97085 | -118.41701 | 2503 ft | 110 kts | 314° |
| 2026-05-07 00:31 | 33.97699 | -118.42322 | 2497 ft | 114 kts | 314° |
| 2026-05-07 00:31 | 33.98331 | -118.42908 | 2496 ft | 118 kts | 329° |
| 2026-05-07 00:31 | 33.99153 | -118.43102 | 2498 ft | 124 kts | 357° |
| 2026-05-07 00:31 | 34.00015 | -118.42931 | 2496 ft | 127 kts | 18° |
| 2026-05-07 00:32 | 34.00747 | -118.42329 | 2498 ft | 128 kts | 49° |
| 2026-05-07 00:32 | 34.01289 | -118.41456 | 2496 ft | 128 kts | 57° |
| 2026-05-07 00:32 | 34.01833 | -118.40619 | 2491 ft | 127 kts | 47° |
| 2026-05-07 00:32 | 34.02470 | -118.39859 | 2424 ft | 128 kts | 45° |
| 2026-05-07 00:33 | 34.03126 | -118.39085 | 2238 ft | 132 kts | 45° |
| 2026-05-07 00:33 | 34.03780 | -118.38339 | 1978 ft | 125 kts | 38° |
| 2026-05-07 00:33 | 34.04579 | -118.38055 | 1667 ft | 116 kts | 344° |
| 2026-05-07 00:33 | 34.05122 | -118.38607 | 1437 ft | 96 kts | 282° |
| 2026-05-07 00:34 | 34.05059 | -118.39394 | 1182 ft | 96 kts | 248° |
| 2026-05-07 00:34 | 34.04813 | -118.40172 | 1041 ft | 99 kts | 246° |
| 2026-05-07 00:34 | 34.04547 | -118.40941 | 916 ft | 98 kts | 244° |
| 2026-05-07 00:34 | 34.04236 | -118.41682 | 893 ft | 97 kts | 238° |
| 2026-05-07 00:35 | 34.03872 | -118.42366 | 894 ft | 96 kts | 233° |
| 2026-05-07 00:35 | 34.03427 | -118.42983 | 802 ft | 102 kts | 226° |
| 2026-05-07 00:35 | 34.02920 | -118.43582 | 624 ft | 101 kts | 223° |
| 2026-05-07 00:35 | 34.02423 | -118.44126 | 462 ft | 84 kts | 228° |
| 2026-05-07 00:36 | 34.02045 | -118.44583 | 218 ft | 70 kts | 226° |
| 2026-05-07 00:36 | 34.01743 | -118.44944 | 151 ft | 50 kts | 225° |
| 2026-05-07 00:36 | 34.01522 | -118.45205 | 141 ft | 36 kts | 226° |
| 2026-05-07 00:36 | 34.01425 | -118.45203 | 139 ft | 15 kts | 61° |
| 2026-05-07 00:37 | 34.01511 | -118.45097 | 143 ft | 21 kts | 45° |
| 2026-05-07 00:37 | 34.01632 | -118.44952 | 148 ft | 24 kts | 50° |
| 2026-05-07 00:37 | 34.01674 | -118.44861 | 151 ft | 6 kts | 345° |
| 2026-05-07 00:37 | 34.01678 | -118.44864 | 151 ft | 0 kts | 318° |